Time;durP1;ratioP1;P1;durP2;ratioP2;P2;SDS_P1;SDS_P2;PMS_P1;PMS_P2;Temp;Humidity;BMP_temperature;BMP_pressure;BME280_temperature;BME280_humidity;BME280_pressure;Samples;Min_cycle;Max_cycle;Signal;HPM_P1;HPM_P2
2022/07/25 00:00:59;;;;;;;;;12.33;12.00;;;;;31.75;36.40;100779.41;5018122;28;45445;-68
2022/07/25 00:03:24;;;;;;;;;12.33;12.33;;;;;31.73;37.10;100787.28;5022905;28;45490;-67
2022/07/25 00:05:50;;;;;;;;;12.67;12.67;;;;;31.70;36.92;100779.44;5025875;28;47033;-67
2022/07/25 00:08:17;;;;;;;;;16.33;15.33;;;;;31.62;36.84;100774.44;5020364;28;45413;-68
2022/07/25 00:10:42;;;;;;;;;11.00;11.00;;;;;31.60;37.67;100765.41;5017936;28;45381;-68
2022/07/25 00:13:08;;;;;;;;;13.75;13.75;;;;;31.59;37.40;100770.19;5019916;28;45545;-67
2022/07/25 00:15:33;;;;;;;;;14.00;13.25;;;;;31.58;36.77;100757.25;5015450;28;46686;-66
2022/07/25 00:17:58;;;;;;;;;14.50;13.25;;;;;31.58;37.10;100754.44;5016942;28;45816;-67
2022/07/25 00:20:24;;;;;;;;;15.33;14.00;;;;;31.55;38.02;100763.47;5015741;28;45478;-66
2022/07/25 00:22:49;;;;;;;;;16.25;16.25;;;;;31.52;37.47;100757.56;5025819;28;45598;-66
2022/07/25 00:25:15;;;;;;;;;13.00;13.00;;;;;31.51;37.53;100747.47;5019833;28;47308;-66
2022/07/25 00:27:41;;;;;;;;;16.00;16.00;;;;;31.56;37.92;100755.88;5025094;28;45434;-66
2022/07/25 00:30:07;;;;;;;;;15.00;15.00;;;;;31.50;37.31;100743.81;5018862;28;45390;-67
2022/07/25 00:32:32;;;;;;;;;13.67;12.33;;;;;31.49;37.37;100739.31;5024719;28;45645;-67
2022/07/25 00:34:57;;;;;;;;;16.50;15.00;;;;;31.46;37.89;100747.50;5022091;28;46253;-66
2022/07/25 00:37:23;;;;;;;;;12.00;12.00;;;;;31.48;37.63;100756.47;5024935;28;45212;-67
2022/07/25 00:39:48;;;;;;;;;11.00;10.33;;;;;31.37;38.61;100750.03;5019119;28;45481;-66
2022/07/25 00:42:13;;;;;;;;;15.33;13.33;;;;;31.30;38.40;100746.72;5025113;28;45303;-67
2022/07/25 00:44:39;;;;;;;;;9.33;9.00;;;;;31.26;38.95;100748.41;5018066;28;47439;-66
2022/07/25 00:47:04;;;;;;;;;12.33;12.00;;;;;31.28;38.72;100740.53;5020645;28;45344;-66
2022/07/25 00:49:30;;;;;;;;;15.33;11.67;;;;;31.19;39.09;100731.88;5012802;28;45435;-66
2022/07/25 00:51:55;;;;;;;;;12.33;12.33;;;;;31.21;38.76;100737.19;5019904;28;45438;-66
2022/07/25 00:54:21;;;;;;;;;15.00;15.00;;;;;31.18;39.72;100737.78;5019725;28;45562;-66
2022/07/25 00:56:48;;;;;;;;;13.67;13.67;;;;;31.21;38.98;100740.00;5020875;28;45425;-66
2022/07/25 00:59:15;;;;;;;;;15.50;15.50;;;;;31.18;39.13;100733.00;5018992;28;45662;-66
2022/07/25 01:01:41;;;;;;;;;18.75;18.00;;;;;30.91;40.15;100736.09;5020799;28;45311;-66
2022/07/25 01:04:07;;;;;;;;;16.75;15.25;;;;;30.70;41.47;100762.50;5017664;28;46639;-66
2022/07/25 01:06:32;;;;;;;;;16.00;15.00;;;;;30.70;42.47;100768.09;5019548;28;45221;-66
2022/07/25 01:08:58;;;;;;;;;12.67;9.33;;;;;30.81;41.84;100758.56;5019896;28;45787;-66
2022/07/25 01:11:24;;;;;;;;;19.33;15.67;;;;;30.73;42.30;100767.56;5018207;28;45306;-66
2022/07/25 01:13:50;;;;;;;;;15.67;15.00;;;;;30.80;41.80;100768.13;5022086;28;45552;-66
2022/07/25 01:16:16;;;;;;;;;15.50;14.25;;;;;30.76;40.98;100768.94;5022181;28;45474;-67
2022/07/25 01:18:41;;;;;;;;;12.50;12.00;;;;;30.51;41.46;100767.00;5019311;28;45510;-66
2022/07/25 01:21:06;;;;;;;;;9.25;9.25;;;;;30.52;41.30;100752.69;5021756;28;45420;-68
2022/07/25 01:23:32;;;;;;;;;12.00;12.00;;;;;30.50;41.52;100759.69;5022075;28;45514;-69
2022/07/25 01:25:57;;;;;;;;;13.33;12.33;;;;;30.39;41.77;100756.00;5019734;28;45381;-66
2022/07/25 01:28:22;;;;;;;;;16.33;13.33;;;;;30.17;42.36;100758.25;5022246;28;45253;-67
2022/07/25 01:30:48;;;;;;;;;12.33;10.67;;;;;30.29;42.06;100756.03;5018451;28;45442;-67
2022/07/25 01:33:18;;;;;;;;;18.33;13.00;;;;;30.23;42.38;100764.69;5022413;28;46444;-67
2022/07/25 01:35:44;;;;;;;;;12.00;11.67;;;;;30.37;42.36;100763.03;5016710;28;45391;-67
2022/07/25 01:38:11;;;;;;;;;14.00;12.67;;;;;30.35;41.83;100760.50;5021473;28;45320;-67
2022/07/25 01:40:36;;;;;;;;;11.00;11.00;;;;;30.43;41.53;100757.16;5015772;28;45323;-67
2022/07/25 01:43:02;;;;;;;;;13.00;11.33;;;;;30.36;41.89;100762.19;5020012;28;46102;-67
2022/07/25 01:45:27;;;;;;;;;12.33;12.00;;;;;30.28;41.87;100765.53;5013881;28;46974;-67
2022/07/25 01:47:53;;;;;;;;;11.33;10.33;;;;;30.07;42.33;100764.69;5017220;28;45468;-67
2022/07/25 01:50:18;;;;;;;;;12.00;10.00;;;;;30.10;42.48;100757.69;5013286;28;45509;-66
2022/07/25 01:52:44;;;;;;;;;11.67;11.67;;;;;30.19;42.00;100758.78;5023765;28;45331;-67
2022/07/25 01:55:10;;;;;;;;;11.33;10.67;;;;;30.17;42.19;100756.25;5021821;28;45319;-66
2022/07/25 01:57:36;;;;;;;;;12.00;10.67;;;;;30.04;43.02;100759.59;5022955;28;45360;-66
2022/07/25 02:00:04;;;;;;;;;11.67;11.67;;;;;29.77;43.41;100754.19;5019799;28;45784;-67
2022/07/25 02:02:29;;;;;;;;;13.33;12.00;;;;;29.64;44.23;100751.91;5021396;28;46207;-67
2022/07/25 02:04:55;;;;;;;;;9.00;9.00;;;;;29.50;44.49;100753.53;5019728;28;45260;-67
2022/07/25 02:07:20;;;;;;;;;11.33;11.33;;;;;29.42;45.08;100766.09;5019221;28;45440;-67
2022/07/25 02:09:45;;;;;;;;;11.67;9.00;;;;;29.33;45.02;100767.69;5018826;28;45606;-66
2022/07/25 02:12:11;;;;;;;;;10.00;8.67;;;;;29.39;45.23;100761.03;5019405;28;45460;-66
2022/07/25 02:14:36;;;;;;;;;14.00;12.67;;;;;29.45;45.04;100752.66;5015879;28;45540;-66
2022/07/25 02:17:02;;;;;;;;;10.33;10.00;;;;;29.11;45.56;100744.63;5023635;28;45387;-66
2022/07/25 02:19:27;;;;;;;;;14.00;12.00;;;;;29.16;45.77;100755.84;5019866;28;45505;-66
2022/07/25 02:21:53;;;;;;;;;12.00;11.67;;;;;29.00;45.66;100751.28;5021924;28;45298;-66
2022/07/25 02:24:18;;;;;;;;;11.33;11.33;;;;;28.78;46.75;100753.38;5018184;28;45334;-66
2022/07/25 02:26:43;;;;;;;;;11.33;11.33;;;;;28.65;47.70;100751.81;5020865;28;45238;-66
2022/07/25 02:29:09;;;;;;;;;12.00;8.33;;;;;28.43;48.74;100765.88;5020213;28;45496;-67
2022/07/25 02:31:34;;;;;;;;;9.33;9.33;;;;;28.33;48.73;100753.78;5019530;28;46727;-66
2022/07/25 02:33:59;;;;;;;;;12.67;11.00;;;;;28.18;49.52;100754.50;5017732;28;45149;-67
2022/07/25 02:36:25;;;;;;;;;12.00;10.00;;;;;28.31;49.26;100745.66;5022202;28;45220;-66
2022/07/25 02:38:50;;;;;;;;;10.00;9.67;;;;;28.25;48.89;100755.13;5019572;28;45393;-67
2022/07/25 02:41:15;;;;;;;;;8.33;8.33;;;;;28.21;48.42;100756.72;5033464;28;48181;-66
2022/07/25 02:43:41;;;;;;;;;9.00;9.00;;;;;28.16;47.51;100760.34;5020447;28;45215;-67
2022/07/25 02:46:06;;;;;;;;;7.33;7.33;;;;;28.17;46.91;100772.34;5016883;28;45345;-67
2022/07/25 02:48:32;;;;;;;;;9.67;8.67;;;;;28.19;46.12;100767.34;5020828;28;45267;-67
2022/07/25 02:50:57;;;;;;;;;5.00;5.00;;;;;28.07;46.33;100761.88;5013510;28;45283;-67
2022/07/25 02:53:22;;;;;;;;;10.00;7.67;;;;;27.95;46.23;100763.16;5018302;28;45459;-67
2022/07/25 02:55:48;;;;;;;;;6.33;6.33;;;;;27.81;46.88;100760.78;5016855;28;45703;-67
2022/07/25 02:58:13;;;;;;;;;4.33;4.33;;;;;27.79;46.97;100765.75;5017567;28;45439;-67
2022/07/25 03:00:39;;;;;;;;;8.00;7.00;;;;;27.78;47.14;100763.22;5016854;28;47446;-69
2022/07/25 03:03:04;;;;;;;;;11.00;8.33;;;;;27.69;47.80;100771.22;5015887;28;45380;-67
2022/07/25 03:05:29;;;;;;;;;10.67;8.67;;;;;27.80;47.40;100769.41;5015531;28;45483;-70
2022/07/25 03:07:55;;;;;;;;;8.00;8.00;;;;;27.64;47.03;100770.31;5014898;28;45506;-70
2022/07/25 03:10:20;;;;;;;;;9.00;8.00;;;;;27.52;47.96;100770.44;5016362;28;45351;-67
2022/07/25 03:12:45;;;;;;;;;11.33;10.00;;;;;27.54;48.01;100765.47;5022029;28;45258;-67
2022/07/25 03:15:13;;;;;;;;;8.33;7.00;;;;;27.49;47.97;100770.94;5018665;28;45416;-67
2022/07/25 03:17:39;;;;;;;;;7.67;7.00;;;;;27.43;47.94;100763.59;5017166;28;45625;-67
2022/07/25 03:20:06;;;;;;;;;9.67;8.33;;;;;27.21;49.16;100776.69;5012429;28;45354;-67
2022/07/25 03:22:32;;;;;;;;;7.67;7.67;;;;;27.23;48.69;100782.88;5025409;28;45346;-67
2022/07/25 03:24:57;;;;;;;;;10.00;8.00;;;;;27.19;48.81;100782.53;5022832;28;45336;-67
2022/07/25 03:27:22;;;;;;;;;5.67;5.67;;;;;27.05;48.76;100782.03;5023061;28;45325;-67
2022/07/25 03:29:48;;;;;;;;;6.33;5.67;;;;;27.03;48.51;100786.22;5021896;28;45388;-67
2022/07/25 03:32:13;;;;;;;;;5.00;5.00;;;;;27.01;47.96;100786.47;5022402;28;45497;-67
2022/07/25 03:34:39;;;;;;;;;5.67;5.67;;;;;26.97;48.30;100779.69;5021863;28;45259;-67
2022/07/25 03:37:04;;;;;;;;;5.00;5.00;;;;;26.66;48.41;100788.66;5023697;28;45250;-67
2022/07/25 03:39:31;;;;;;;;;5.00;5.00;;;;;26.63;48.22;100792.78;5020559;28;45547;-66
2022/07/25 03:41:56;;;;;;;;;8.33;6.67;;;;;26.68;48.67;100804.00;5020398;28;45374;-67
2022/07/25 03:44:22;;;;;;;;;7.00;6.67;;;;;26.63;48.23;100803.94;5019305;28;45466;-67
2022/07/25 03:46:48;;;;;;;;;6.00;6.00;;;;;26.66;48.27;100808.16;5026378;28;45330;-67
2022/07/25 03:49:14;;;;;;;;;5.67;5.67;;;;;26.77;48.16;100811.94;5018448;28;45433;-67
2022/07/25 03:51:39;;;;;;;;;8.00;6.33;;;;;26.68;48.02;100819.88;5024723;28;45310;-67
2022/07/25 03:54:05;;;;;;;;;5.00;5.00;;;;;26.59;48.02;100825.03;5019777;28;45398;-67
2022/07/25 03:56:36;;;;;;;;;10.33;6.00;;;;;26.66;47.91;100828.53;5021555;28;45410;-67
2022/07/25 03:59:02;;;;;;;;;5.00;5.00;;;;;26.72;47.49;100837.81;5019936;28;46378;-67
2022/07/25 04:01:27;;;;;;;;;34.50;29.25;;;;;26.60;47.32;100829.50;5019972;28;45448;-66
2022/07/25 04:03:53;;;;;;;;;9.67;9.00;;;;;26.62;47.49;100840.41;5021021;28;45339;-66
2022/07/25 04:06:18;;;;;;;;;5.33;5.33;;;;;26.61;46.45;100844.28;5017166;28;45322;-66
2022/07/25 04:08:44;;;;;;;;;6.00;5.00;;;;;26.59;46.32;100846.50;5022742;28;45667;-66
2022/07/25 04:11:09;;;;;;;;;7.00;5.33;;;;;26.21;46.83;100842.41;5015085;28;45478;-66
2022/07/25 04:13:35;;;;;;;;;5.00;5.00;;;;;26.26;46.95;100845.31;5021960;28;45815;-66
2022/07/25 04:16:00;;;;;;;;;5.67;4.33;;;;;26.35;46.48;100837.41;5014256;28;45438;-66
2022/07/25 04:18:25;;;;;;;;;4.00;4.00;;;;;26.30;46.58;100834.53;5020146;28;45442;-66
2022/07/25 04:20:51;;;;;;;;;3.00;3.00;;;;;26.36;46.59;100830.75;5029165;28;45301;-67
2022/07/25 04:23:16;;;;;;;;;5.33;4.33;;;;;26.24;46.31;100825.19;5024137;28;45285;-67
2022/07/25 04:25:41;;;;;;;;;4.67;4.67;;;;;26.31;46.63;100847.34;5021449;28;45312;-67
2022/07/25 04:28:07;;;;;;;;;4.67;3.00;;;;;26.25;46.40;100852.00;5024745;28;45338;-67
2022/07/25 04:30:32;;;;;;;;;5.67;5.67;;;;;25.96;47.83;100845.53;5015015;28;45370;-67
2022/07/25 04:32:58;;;;;;;;;4.33;4.33;;;;;25.88;48.31;100853.44;5025296;28;45511;-68
2022/07/25 04:35:23;;;;;;;;;4.00;4.00;;;;;25.95;48.45;100846.63;5014536;28;45561;-67
2022/07/25 04:37:48;;;;;;;;;5.00;5.00;;;;;25.96;48.95;100842.75;5025061;28;45412;-68
2022/07/25 04:40:13;;;;;;;;;6.33;5.00;;;;;25.88;49.75;100853.44;5024105;28;45534;-68
2022/07/25 04:42:39;;;;;;;;;9.33;6.67;;;;;25.93;50.07;100864.69;5023760;28;45510;-68
2022/07/25 04:45:04;;;;;;;;;3.00;3.00;;;;;25.75;50.73;100865.69;5027799;28;45358;-68
2022/07/25 04:47:30;;;;;;;;;3.00;3.00;;;;;25.84;50.61;100857.81;5016587;28;46647;-68
2022/07/25 04:49:55;;;;;;;;;1.33;1.33;;;;;25.75;51.84;100862.06;5017362;28;48036;-68
2022/07/25 04:52:21;;;;;;;;;5.00;3.00;;;;;25.81;51.33;100867.47;5023590;28;45760;-68
2022/07/25 04:54:46;;;;;;;;;4.00;3.00;;;;;25.71;52.51;100880.34;5018400;28;45454;-68
2022/07/25 04:57:12;;;;;;;;;7.33;3.67;;;;;25.49;53.20;100866.19;5021466;28;45350;-67
2022/07/25 04:59:37;;;;;;;;;4.67;4.67;;;;;25.30;54.32;100857.13;5033055;28;45886;-68
2022/07/25 05:02:03;;;;;;;;;6.33;5.00;;;;;25.54;53.47;100858.81;5019368;28;45370;-71
2022/07/25 05:04:28;;;;;;;;;5.00;5.00;;;;;25.41;54.13;100856.28;5017948;28;45506;-68
2022/07/25 05:06:53;;;;;;;;;5.33;5.33;;;;;25.38;54.82;100865.09;5016737;28;45347;-69
2022/07/25 05:09:19;;;;;;;;;3.00;3.00;;;;;25.49;54.19;100861.47;5017734;28;45323;-68
2022/07/25 05:11:44;;;;;;;;;2.00;2.00;;;;;25.55;53.77;100860.50;5014619;28;45427;-68
2022/07/25 05:14:09;;;;;;;;;3.33;3.33;;;;;25.63;54.02;100867.66;5021362;28;45341;-68
2022/07/25 05:16:35;;;;;;;;;4.00;4.00;;;;;25.74;53.32;100866.78;5018247;28;46152;-68
2022/07/25 05:19:00;;;;;;;;;7.00;4.00;;;;;25.57;54.08;100869.41;5006065;28;45359;-68
2022/07/25 05:21:26;;;;;;;;;8.00;4.00;;;;;25.71;54.07;100869.22;5022000;28;45209;-68
2022/07/25 05:23:52;;;;;;;;;10.33;7.00;;;;;25.52;55.03;100877.66;5021131;28;45323;-68
2022/07/25 05:26:18;;;;;;;;;6.33;6.33;;;;;25.76;54.63;100872.09;5018944;28;45470;-68
2022/07/25 05:28:43;;;;;;;;;6.67;6.67;;;;;25.77;54.18;100876.59;5020420;28;46132;-67
2022/07/25 05:31:09;;;;;;;;;7.33;5.33;;;;;25.81;54.67;100883.34;5014312;28;45662;-69
2022/07/25 05:33:34;;;;;;;;;4.33;4.33;;;;;25.98;54.45;100881.50;5016723;28;45539;-68
2022/07/25 05:36:02;;;;;;;;;4.67;4.00;;;;;26.05;53.69;100884.97;5013727;28;45712;-66
2022/07/25 05:38:27;;;;;;;;;2.67;2.00;;;;;26.01;53.93;100888.50;5021239;28;45280;-69
2022/07/25 05:40:52;;;;;;;;;6.33;4.00;;;;;25.98;54.80;100892.63;5019902;28;45613;-68
2022/07/25 05:43:18;;;;;;;;;6.00;4.33;;;;;26.16;54.23;100899.94;5022109;28;45303;-68
2022/07/25 05:45:46;;;;;;;;;5.33;4.00;;;;;26.09;54.92;100896.44;5013484;28;46415;-68
2022/07/25 05:48:11;;;;;;;;;3.00;3.00;;;;;25.95;55.20;100898.66;5022214;28;45339;-68
2022/07/25 05:50:36;;;;;;;;;2.67;2.00;;;;;25.95;55.60;100890.31;5015283;28;45352;-68
2022/07/25 05:53:02;;;;;;;;;5.33;3.00;;;;;26.10;55.22;100896.22;5022145;28;45235;-67
2022/07/25 05:55:27;;;;;;;;;5.00;3.67;;;;;26.02;55.71;100902.16;5014919;28;45673;-67
2022/07/25 05:57:53;;;;;;;;;5.00;5.00;;;;;26.14;55.49;100903.00;5019646;28;45295;-67
2022/07/25 06:00:18;;;;;;;;;3.67;3.67;;;;;26.48;54.76;100908.69;5015711;28;45224;-67
2022/07/25 06:02:43;;;;;;;;;4.67;3.00;;;;;26.92;53.19;100915.41;5021037;28;45572;-67
2022/07/25 06:05:09;;;;;;;;;3.33;3.33;;;;;29.03;47.17;100899.00;5016471;28;46191;-67
2022/07/25 06:07:34;;;;;;;;;3.33;3.33;;;;;28.67;47.06;100900.59;5021755;28;45477;-67
2022/07/25 06:10:00;;;;;;;;;5.00;5.00;;;;;27.93;48.13;100914.22;5014833;28;45410;-67
2022/07/25 06:12:25;;;;;;;;;4.33;4.33;;;;;27.65;49.55;100908.78;5016226;28;45501;-66
2022/07/25 06:14:51;;;;;;;;;5.33;4.00;;;;;27.47;50.12;100904.28;5008055;28;45611;-66
2022/07/25 06:17:16;;;;;;;;;4.67;4.67;;;;;27.32;51.05;100909.66;5018023;28;45535;-68
2022/07/25 06:19:42;;;;;;;;;4.67;4.67;;;;;27.23;51.53;100916.75;5015344;28;45705;-68
2022/07/25 06:22:08;;;;;;;;;5.00;4.00;;;;;27.15;51.65;100919.97;5022819;28;45236;-68
2022/07/25 06:24:34;;;;;;;;;8.00;4.33;;;;;27.21;52.03;100930.13;5014489;28;45638;-67
2022/07/25 06:26:59;;;;;;;;;5.33;3.00;;;;;27.15;52.17;100925.56;5021687;28;45280;-67
2022/07/25 06:29:24;;;;;;;;;5.33;4.67;;;;;27.06;52.98;100927.91;5016576;28;45873;-68
2022/07/25 06:31:50;;;;;;;;;4.00;4.00;;;;;27.14;52.40;100935.88;5017926;28;45330;-68
2022/07/25 06:34:15;;;;;;;;;5.67;4.67;;;;;27.26;51.05;100933.81;5017239;28;46038;-67
2022/07/25 06:36:41;;;;;;;;;5.33;5.00;;;;;27.26;51.45;100932.97;5014522;28;45312;-68
2022/07/25 06:39:06;;;;;;;;;3.33;3.00;;;;;27.45;51.18;100942.78;5016592;28;45494;-67
2022/07/25 06:41:32;;;;;;;;;6.00;6.00;;;;;27.36;51.77;100938.75;5013883;28;45473;-68
2022/07/25 06:43:57;;;;;;;;;6.00;4.00;;;;;27.50;51.06;100940.94;5017936;28;46335;-68
2022/07/25 06:46:22;;;;;;;;;8.00;6.00;;;;;27.56;50.79;100947.47;5010360;28;45360;-67
2022/07/25 06:48:48;;;;;;;;;5.33;5.33;;;;;27.52;51.51;100951.84;5015270;28;45278;-68
2022/07/25 06:51:13;;;;;;;;;8.00;7.00;;;;;27.43;52.20;100951.41;5013475;28;45480;-67
2022/07/25 06:53:39;;;;;;;;;8.67;5.00;;;;;27.10;53.30;100952.25;5018266;28;47202;-68
2022/07/25 06:56:04;;;;;;;;;4.67;3.33;;;;;27.10;53.75;100955.03;5019316;28;45315;-67
2022/07/25 06:58:30;;;;;;;;;9.00;4.00;;;;;27.18;54.26;100952.97;5019451;28;45558;-68
2022/07/25 07:00:55;;;;;;;;;4.33;4.33;;;;;27.15;54.64;100964.59;5018380;28;45426;-67
2022/07/25 07:03:21;;;;;;;;;5.00;5.00;;;;;27.43;53.37;100959.78;5019921;28;46145;-67
2022/07/25 07:05:46;;;;;;;;;6.00;3.33;;;;;27.35;54.22;100967.72;5015215;28;45420;-67
2022/07/25 07:08:11;;;;;;;;;7.00;5.33;;;;;27.54;53.73;100965.56;5021089;28;45292;-67
2022/07/25 07:10:38;;;;;;;;;5.00;5.00;;;;;27.43;54.03;100972.91;5015846;28;45279;-67
2022/07/25 07:13:10;;;;;;;;;3.67;3.67;;;;;27.54;53.46;100954.41;5020823;28;45433;-67
2022/07/25 07:15:37;;;;;;;;;8.00;5.00;;;;;27.54;53.15;100973.94;5013253;28;45370;-68
2022/07/25 07:18:03;;;;;;;;;6.33;6.00;;;;;27.78;52.64;100964.25;5018960;28;46730;-67
2022/07/25 07:20:29;;;;;;;;;6.00;4.67;;;;;27.76;52.53;100978.47;5017279;28;45573;-67
2022/07/25 07:22:54;;;;;;;;;5.00;5.00;;;;;27.75;52.92;100970.38;5021872;28;45355;-67
2022/07/25 07:25:20;;;;;;;;;8.67;7.33;;;;;27.80;52.76;100970.44;5014944;28;45522;-67
2022/07/25 07:27:46;;;;;;;;;3.00;3.00;;;;;28.07;51.66;100968.59;5021507;28;45446;-68
2022/07/25 07:30:15;;;;;;;;;6.00;3.00;;;;;27.85;52.66;100976.94;5014885;28;45515;-68
2022/07/25 07:32:41;;;;;;;;;3.67;3.00;;;;;28.18;51.77;100969.63;5013185;28;46742;-68
2022/07/25 07:35:07;;;;;;;;;2.00;2.00;;;;;27.70;52.89;100978.66;5013521;28;45412;-68
2022/07/25 07:37:33;;;;;;;;;7.33;5.33;;;;;27.82;53.36;100980.25;5019647;28;45511;-67
2022/07/25 07:39:58;;;;;;;;;2.00;2.00;;;;;28.19;51.49;100974.94;5012485;28;45518;-68
2022/07/25 07:42:24;;;;;;;;;5.00;5.00;;;;;28.16;51.38;100967.06;5017836;28;45450;-68
2022/07/25 07:44:49;;;;;;;;;2.67;2.67;;;;;28.21;51.81;100974.66;5009544;28;45269;-66
2022/07/25 07:47:14;;;;;;;;;3.33;3.33;;;;;28.50;50.92;100987.34;5030668;28;45458;-66
2022/07/25 07:49:40;;;;;;;;;2.67;2.67;;;;;27.88;52.94;100986.75;5013743;28;45414;-67
2022/07/25 07:52:05;;;;;;;;;3.33;3.00;;;;;27.94;53.08;100985.72;5011169;28;46438;-66
2022/07/25 07:57:14;;;;;;;;;4.33;4.00;;;;;28.05;52.43;100983.94;5012768;28;45194;-67
2022/07/25 07:59:39;;;;;;;;;4.00;4.00;;;;;28.19;52.52;100991.72;5017211;28;45332;-67
2022/07/25 08:02:05;;;;;;;;;2.00;2.00;;;;;28.47;51.67;100989.81;5010292;28;46301;-67
2022/07/25 08:04:31;;;;;;;;;4.00;4.00;;;;;28.54;51.10;100991.31;5015688;28;45338;-67
2022/07/25 08:06:56;;;;;;;;;4.33;4.33;;;;;28.77;50.43;100993.00;5009377;28;45291;-67
2022/07/25 08:09:24;;;;;;;;;5.33;3.00;;;;;28.97;49.47;101006.34;5018285;28;45544;-67
2022/07/25 08:11:50;;;;;;;;;4.00;2.00;;;;;29.17;49.06;100995.38;5024500;28;46054;-68
2022/07/25 08:14:15;;;;;;;;;4.00;4.00;;;;;29.48;47.64;100999.31;5021792;28;45420;-67
2022/07/25 08:16:40;;;;;;;;;1.67;1.67;;;;;29.38;47.74;101002.88;5024684;28;45371;-67
2022/07/25 08:19:06;;;;;;;;;3.00;3.00;;;;;29.52;48.15;101008.84;5020991;28;45312;-67
2022/07/25 08:21:31;;;;;;;;;3.67;3.67;;;;;29.15;48.57;101011.56;5023659;28;45528;-67
2022/07/25 08:23:56;;;;;;;;;8.00;5.00;;;;;29.42;47.74;101004.03;5020072;28;45398;-69
2022/07/25 08:26:22;;;;;;;;;3.67;3.67;;;;;29.13;48.65;101010.16;5034688;28;45402;-67
2022/07/25 08:28:47;;;;;;;;;4.00;3.00;;;;;29.53;47.21;101004.09;5021686;28;45276;-68
2022/07/25 08:31:12;;;;;;;;;2.67;2.67;;;;;29.62;47.24;101014.56;5018226;28;45454;-67
2022/07/25 08:33:38;;;;;;;;;5.00;5.00;;;;;29.85;46.90;101004.06;5020247;28;45393;-67
2022/07/25 08:36:03;;;;;;;;;4.00;3.00;;;;;30.16;46.23;101006.84;5026133;28;45347;-67
2022/07/25 08:38:29;;;;;;;;;4.00;4.00;;;;;30.22;45.94;101012.47;5018707;28;47749;-67
2022/07/25 08:40:56;;;;;;;;;4.00;2.67;;;;;30.40;45.30;101001.59;5016880;28;46241;-66
2022/07/25 08:43:22;;;;;;;;;2.00;2.00;;;;;30.50;44.05;101010.09;5016634;28;45334;-67
2022/07/25 08:45:49;;;;;;;;;2.67;2.67;;;;;30.64;44.24;101012.38;5015782;28;45296;-67
2022/07/25 08:48:24;;;;;;;;;8.00;5.00;;;;;30.40;45.22;101011.97;5015962;28;45505;-67
2022/07/25 08:50:50;;;;;;;;;1.33;1.33;;;;;30.25;44.86;101020.31;5022913;28;46187;-68
2022/07/25 08:53:19;;;;;;;;;2.67;2.33;;;;;30.12;45.46;101013.22;5023546;28;45609;-69
2022/07/25 08:55:45;;;;;;;;;5.00;3.00;;;;;29.69;46.45;101026.38;5021549;28;45320;-66
2022/07/25 08:58:13;;;;;;;;;2.00;2.00;;;;;29.62;47.42;101024.91;5024285;28;45305;-67
2022/07/25 09:00:39;;;;;;;;;3.67;2.00;;;;;29.75;46.67;101024.44;5018452;28;45918;-67
2022/07/25 09:03:05;;;;;;;;;3.00;2.00;;;;;30.19;45.49;101014.69;5023686;28;45335;-67
2022/07/25 09:05:31;;;;;;;;;4.00;3.00;;;;;30.33;45.21;101029.03;5017468;28;45483;-66
2022/07/25 09:08:09;;;;;;;;;10.67;4.00;;;;;30.37;45.97;101015.34;5023963;28;45350;-66
2022/07/25 09:10:36;;;;;;;;;4.33;3.00;;;;;30.35;45.42;101011.97;5035282;28;46225;-67
2022/07/25 09:13:09;;;;;;;;;2.00;2.00;;;;;30.00;46.10;101033.06;5023095;28;45224;-67
2022/07/25 09:15:37;;;;;;;;;2.00;2.00;;;;;29.46;47.76;101034.28;5019858;28;45417;-67
2022/07/25 09:18:05;;;;;;;;;2.33;2.33;;;;;29.61;47.59;101035.25;5022521;28;45255;-67
2022/07/25 09:20:48;;;;;;;;;3.00;3.00;;;;;29.61;47.04;101038.06;5032899;28;47861;-67
2022/07/25 09:23:35;;;;;;;;;2.67;2.67;;;;;29.61;47.36;101040.00;5023109;28;45643;-67
2022/07/25 09:26:10;;;;;;;;;6.00;3.00;;;;;29.31;48.43;101046.16;5019070;28;45283;-68
2022/07/25 09:28:46;;;;;;;;;1.00;1.00;;;;;29.44;47.99;101042.13;5022105;28;45459;-68
2022/07/25 09:31:12;;;;;;;;;3.33;3.00;;;;;29.83;46.84;101043.56;5016126;28;45402;-68
2022/07/25 09:33:50;;;;;;;;;3.33;3.33;;;;;29.78;46.46;101049.13;5019472;28;45397;-68
2022/07/25 09:36:16;;;;;;;;;5.00;5.00;;;;;29.71;47.08;101045.72;5016834;28;45421;-68
2022/07/25 09:38:58;;;;;;;;;4.33;4.33;;;;;30.15;45.68;101047.19;5017426;28;45407;-68
2022/07/25 09:41:38;;;;;;;;;2.00;2.00;;;;;30.43;45.04;101053.50;5012864;28;45771;-68
2022/07/25 09:44:17;;;;;;;;;4.67;4.00;;;;;30.61;44.30;101052.22;5019200;28;45434;-68
2022/07/25 09:46:42;;;;;;;;;6.67;5.67;;;;;30.76;44.23;101055.06;5015371;28;45405;-68
2022/07/25 09:49:08;;;;;;;;;5.00;5.00;;;;;31.03;43.88;101058.53;5020844;28;45240;-69
2022/07/25 09:51:34;;;;;;;;;7.33;4.00;;;;;31.25;43.01;101058.34;5014579;28;45537;-69
2022/07/25 09:53:59;;;;;;;;;2.33;2.33;;;;;31.57;41.83;101058.91;5019970;28;45497;-66
2022/07/25 09:56:25;;;;;;;;;3.67;2.00;;;;;31.55;41.33;101072.41;5020110;28;45256;-68
2022/07/25 09:58:51;;;;;;;;;1.00;1.00;;;;;31.72;40.41;101060.91;5020311;28;45406;-66
2022/07/25 10:01:24;;;;;;;;;1.67;1.67;;;;;31.19;41.18;101060.31;5018497;28;45490;-68
2022/07/25 10:03:52;;;;;;;;;5.33;3.00;;;;;30.66;42.04;101064.31;5024623;28;45352;-66
2022/07/25 10:06:31;;;;;;;;;4.00;2.33;;;;;30.52;42.14;101068.72;5017189;28;45270;-67
2022/07/25 10:08:57;;;;;;;;;3.00;1.00;;;;;30.79;42.16;101063.78;5016551;28;45513;-68
2022/07/25 10:11:25;;;;;;;;;3.00;3.00;;;;;30.36;43.43;101075.31;5015679;28;45461;-69
2022/07/25 10:13:52;;;;;;;;;4.33;2.33;;;;;30.06;44.77;101065.59;5019826;28;45452;-69
2022/07/25 10:16:25;;;;;;;;;2.00;2.00;;;;;30.09;44.92;101059.47;5023128;28;45260;-68
2022/07/25 10:18:53;;;;;;;;;3.33;2.67;;;;;30.37;44.33;101071.41;5019491;28;45580;-69
2022/07/25 10:21:19;;;;;;;;;3.33;2.00;;;;;30.02;45.14;101078.50;5019337;28;45370;-69
2022/07/25 10:23:45;;;;;;;;;3.33;3.33;;;;;29.99;45.33;101076.22;5017718;28;45439;-68
2022/07/25 10:26:18;;;;;;;;;3.00;3.00;;;;;29.99;45.08;101081.81;5021695;28;45584;-68
2022/07/25 10:28:49;;;;;;;;;2.00;2.00;;;;;30.25;44.95;101074.41;5020152;28;45822;-69
2022/07/25 10:31:23;;;;;;;;;3.00;3.00;;;;;30.09;45.43;101083.84;5015517;28;46396;-68
2022/07/25 10:33:56;;;;;;;;;4.67;4.00;;;;;29.85;45.76;101086.16;5018675;28;45410;-69
2022/07/25 10:36:23;;;;;;;;;3.00;3.00;;;;;30.01;45.65;101093.59;5008421;28;45334;-68
2022/07/25 10:38:56;;;;;;;;;3.00;3.00;;;;;30.25;44.95;101091.22;5009717;28;45449;-67
2022/07/25 10:41:27;;;;;;;;;6.33;3.00;;;;;30.25;45.06;101095.97;5018307;28;45590;-67
2022/07/25 10:43:58;;;;;;;;;6.33;3.33;;;;;30.28;44.82;101096.31;5016828;28;45244;-72
2022/07/25 10:46:29;;;;;;;;;3.67;3.67;;;;;30.28;44.55;101103.88;5016737;28;45379;-69
2022/07/25 10:49:00;;;;;;;;;6.33;5.00;;;;;30.48;44.51;101096.41;5020592;28;45537;-67
2022/07/25 10:51:30;;;;;;;;;7.33;4.00;;;;;30.53;44.32;101101.25;5012830;28;47027;-67
2022/07/25 10:53:56;;;;;;;;;1.00;1.00;;;;;30.10;44.92;101100.38;5019257;28;45499;-67
2022/07/25 10:56:24;;;;;;;;;3.33;0.00;;;;;30.07;45.67;101100.94;5020411;28;45282;-67
2022/07/25 10:58:57;;;;;;;;;4.67;4.67;;;;;29.76;46.39;101115.75;5020076;28;45558;-68
2022/07/25 11:01:35;;;;;;;;;4.00;4.00;;;;;30.01;45.68;101099.22;5034430;28;45557;-67
2022/07/25 11:04:13;;;;;;;;;4.67;4.67;;;;;30.02;45.98;101108.47;5017681;28;45493;-67
2022/07/25 11:06:40;;;;;;;;;5.00;4.00;;;;;30.16;45.13;101110.53;5009494;28;45474;-67
2022/07/25 11:09:21;;;;;;;;;2.00;2.00;;;;;30.23;44.87;101109.44;5020699;28;45254;-67
2022/07/25 11:11:50;;;;;;;;;7.00;5.00;;;;;30.28;44.92;101121.53;5014514;28;46500;-66
2022/07/25 11:14:29;;;;;;;;;6.00;5.00;;;;;29.88;45.65;101113.63;5018575;28;45315;-69
2022/07/25 11:16:55;;;;;;;;;6.33;3.33;;;;;29.91;45.11;101113.09;5016630;28;45325;-67
2022/07/25 11:19:28;;;;;;;;;3.33;3.33;;;;;30.05;45.03;101121.91;5016390;28;45543;-66
2022/07/25 11:21:58;;;;;;;;;4.00;4.00;;;;;30.21;44.21;101114.47;5014459;28;45560;-67